Time,TemperatureF,DewpointF,PressureIn,WindDirection,WindDirectionDegrees,WindSpeedMPH,WindSpeedGustMPH,Humidity,HourlyPrecipIn,Conditions,Clouds,dailyrainin,SoftwareType,DateUTC
2013-03-17 00:00:00,13.3,5.0,29.58,NE,45,0.0,0.0,69,0.00,,,0.00,WUHU21623XXSP,2013-03-17 05:00:00,
2013-03-17 00:05:00,13.3,5.0,29.58,NE,45,0.0,0.0,69,0.00,,,0.00,WUHU21623XXSP,2013-03-17 05:05:00,
2013-03-17 00:10:00,13.1,4.8,29.58,NE,45,0.0,0.0,69,0.00,,,0.00,WUHU21623XXSP,2013-03-17 05:10:00,
2013-03-17 00:15:00,12.9,4.7,29.58,NE,45,0.0,0.0,69,0.00,,,0.00,WUHU21623XXSP,2013-03-17 05:15:00,
2013-03-17 00:20:00,12.7,4.5,29.58,NE,45,0.0,0.0,69,0.00,,,0.00,WUHU21623XXSP,2013-03-17 05:20:00,
2013-03-17 00:25:00,12.6,4.5,29.58,NE,45,0.0,0.0,69,0.00,,,0.00,WUHU21623XXSP,2013-03-17 05:25:00,
2013-03-17 00:30:00,12.6,4.3,29.58,NE,45,0.0,0.0,69,0.00,,,0.00,WUHU21623XXSP,2013-03-17 05:30:00,
2013-03-17 00:35:00,12.4,4.1,29.58,NE,45,0.0,0.0,69,0.00,,,0.00,WUHU21623XXSP,2013-03-17 05:35:00,
2013-03-17 00:40:00,12.2,4.1,29.59,NE,45,0.0,0.0,69,0.00,,,0.00,WUHU21623XXSP,2013-03-17 05:40:00,
2013-03-17 00:45:00,12.0,3.9,29.59,NE,45,0.0,0.0,70,0.00,,,0.00,WUHU21623XXSP,2013-03-17 05:45:00,
2013-03-17 00:50:00,12.0,4.1,29.59,NE,45,0.0,0.0,70,0.00,,,0.00,WUHU21623XXSP,2013-03-17 05:50:00,
2013-03-17 00:55:00,12.0,3.8,29.59,NE,45,0.0,0.0,69,0.00,,,0.00,WUHU21623XXSP,2013-03-17 05:55:00,
2013-03-17 01:01:00,11.8,3.6,29.59,NE,45,0.0,0.0,69,0.00,,,0.00,WUHU21623XXSP,2013-03-17 06:01:00,
2013-03-17 01:10:00,11.8,3.6,29.59,NE,45,0.0,0.0,69,0.00,,,0.00,WUHU21623XXSP,2013-03-17 06:10:00,
2013-03-17 01:15:00,11.3,3.4,29.59,NE,45,0.0,0.0,70,0.00,,,0.00,WUHU21623XXSP,2013-03-17 06:15:00,
2013-03-17 01:20:00,11.1,3.2,29.59,NE,45,0.0,0.0,70,0.00,,,0.00,WUHU21623XXSP,2013-03-17 06:20:00,
2013-03-17 01:25:00,11.1,3.2,29.59,NE,45,0.0,0.0,70,0.00,,,0.00,WUHU21623XXSP,2013-03-17 06:25:00,
2013-03-17 01:30:00,11.1,3.2,29.59,NE,45,0.0,0.0,70,0.00,,,0.00,WUHU21623XXSP,2013-03-17 06:30:00,
2013-03-17 01:35:00,10.9,3.0,29.59,NE,45,0.0,0.0,70,0.00,,,0.00,WUHU21623XXSP,2013-03-17 06:35:00,
2013-03-17 01:40:00,10.9,3.3,29.59,NE,45,0.0,0.0,71,0.00,,,0.00,WUHU21623XXSP,2013-03-17 06:40:00,
2013-03-17 01:45:00,10.8,3.3,29.59,NE,45,0.0,0.0,71,0.00,,,0.00,WUHU21623XXSP,2013-03-17 06:45:00,
2013-03-17 01:50:00,10.6,2.8,29.60,NE,45,0.0,0.0,70,0.00,,,0.00,WUHU21623XXSP,2013-03-17 06:50:00,
2013-03-17 01:55:00,10.6,2.7,29.60,NE,45,0.0,0.0,70,0.00,,,0.00,WUHU21623XXSP,2013-03-17 06:55:00,
2013-03-17 02:00:00,10.2,2.5,29.60,NE,45,0.0,0.0,70,0.00,,,0.00,WUHU21623XXSP,2013-03-17 07:00:00,
2013-03-17 02:05:00,10.2,2.3,29.60,NE,45,0.0,0.0,70,0.00,,,0.00,WUHU21623XXSP,2013-03-17 07:05:00,
2013-03-17 02:10:00,10.0,2.2,29.60,NE,45,0.0,0.0,70,0.00,,,0.00,WUHU21623XXSP,2013-03-17 07:10:00,
2013-03-17 02:15:00,9.7,1.8,29.60,NE,45,0.0,0.0,70,0.00,,,0.00,WUHU21623XXSP,2013-03-17 07:15:00,
2013-03-17 02:20:00,9.7,2.1,29.61,NE,45,0.0,0.0,71,0.00,,,0.00,WUHU21623XXSP,2013-03-17 07:20:00,
2013-03-17 02:25:00,9.7,2.1,29.61,NE,45,0.0,0.0,71,0.00,,,0.00,WUHU21623XXSP,2013-03-17 07:25:00,
2013-03-17 02:30:00,9.7,2.1,29.61,NE,45,0.0,0.0,71,0.00,,,0.00,WUHU21623XXSP,2013-03-17 07:30:00,
2013-03-17 02:35:00,9.7,2.1,29.61,NE,45,0.0,0.0,71,0.00,,,0.00,WUHU21623XXSP,2013-03-17 07:35:00,
2013-03-17 02:40:00,9.7,2.1,29.60,NE,45,0.0,0.0,71,0.00,,,0.00,WUHU21623XXSP,2013-03-17 07:40:00,
2013-03-17 02:45:00,9.5,2.0,29.59,NE,45,0.0,0.0,71,0.00,,,0.00,WUHU21623XXSP,2013-03-17 07:45:00,
2013-03-17 02:50:00,9.5,2.2,29.60,NE,45,0.0,0.0,72,0.00,,,0.00,WUHU21623XXSP,2013-03-17 07:50:00,
2013-03-17 02:55:00,9.3,2.1,29.59,NE,45,0.0,0.0,72,0.00,,,0.00,WUHU21623XXSP,2013-03-17 07:55:00,
2013-03-17 03:01:00,9.0,1.8,29.60,NE,45,0.0,0.0,72,0.00,,,0.00,WUHU21623XXSP,2013-03-17 08:01:00,
2013-03-17 03:06:00,8.6,1.3,29.59,NE,45,0.0,0.0,71,0.00,,,0.00,WUHU21623XXSP,2013-03-17 08:06:00,
2013-03-17 03:11:00,8.2,1.1,29.59,NE,45,0.0,0.0,72,0.00,,,0.00,WUHU21623XXSP,2013-03-17 08:11:00,
2013-03-17 03:16:00,7.9,0.7,29.59,NE,45,0.0,0.0,72,0.00,,,0.00,WUHU21623XXSP,2013-03-17 08:16:00,
2013-03-17 03:21:00,7.7,0.5,29.59,NE,45,0.0,0.0,72,0.00,,,0.00,WUHU21623XXSP,2013-03-17 08:21:00,
2013-03-17 03:26:00,8.1,0.9,29.59,NE,45,0.0,0.0,72,0.00,,,0.00,WUHU21623XXSP,2013-03-17 08:26:00,
2013-03-17 03:31:00,8.4,1.5,29.58,NE,45,0.0,0.0,73,0.00,,,0.00,WUHU21623XXSP,2013-03-17 08:31:00,
2013-03-17 03:36:00,9.0,1.8,29.58,NE,45,0.0,0.0,72,0.00,,,0.00,WUHU21623XXSP,2013-03-17 08:36:00,
2013-03-17 03:41:00,9.3,2.1,29.58,NE,45,0.0,0.0,72,0.00,,,0.00,WUHU21623XXSP,2013-03-17 08:41:00,
2013-03-17 03:46:00,9.5,2.0,29.58,NE,45,0.0,0.0,71,0.00,,,0.00,WUHU21623XXSP,2013-03-17 08:46:00,
2013-03-17 03:51:00,9.7,2.1,29.58,NE,45,0.0,0.0,71,0.00,,,0.00,WUHU21623XXSP,2013-03-17 08:51:00,
2013-03-17 03:56:00,9.7,2.1,29.58,NE,45,0.0,0.0,71,0.00,,,0.00,WUHU21623XXSP,2013-03-17 08:56:00,
2013-03-17 04:02:00,9.7,2.1,29.58,NE,45,0.0,0.0,70,0.00,,,0.00,WUHU21623XXSP,2013-03-17 09:02:00,
2013-03-17 04:07:00,9.7,1.8,29.58,NE,45,0.0,0.0,70,0.00,,,0.00,WUHU21623XXSP,2013-03-17 09:07:00,
2013-03-17 04:12:00,10.0,1.8,29.57,NE,45,0.0,2.0,69,0.00,,,0.00,WUHU21623XXSP,2013-03-17 09:12:00,
2013-03-17 04:17:00,10.0,1.8,29.57,NE,45,0.0,2.0,69,0.00,,,0.00,WUHU21623XXSP,2013-03-17 09:17:00,
2013-03-17 04:22:00,10.0,1.8,29.57,NE,45,0.0,0.0,69,0.00,,,0.00,WUHU21623XXSP,2013-03-17 09:22:00,
2013-03-17 04:27:00,9.7,1.5,29.57,NE,45,0.0,0.0,69,0.00,,,0.00,WUHU21623XXSP,2013-03-17 09:27:00,
2013-03-17 04:32:00,9.7,1.5,29.57,NE,45,0.0,0.0,69,0.00,,,0.00,WUHU21623XXSP,2013-03-17 09:32:00,
2013-03-17 04:37:00,9.7,1.5,29.57,NE,45,0.0,0.0,69,0.00,,,0.00,WUHU21623XXSP,2013-03-17 09:37:00,
2013-03-17 04:42:00,9.7,1.5,29.57,NE,45,0.0,0.0,69,0.00,,,0.00,WUHU21623XXSP,2013-03-17 09:42:00,
2013-03-17 04:47:00,9.7,1.5,29.57,NE,45,0.0,0.0,69,0.00,,,0.00,WUHU21623XXSP,2013-03-17 09:47:00,
2013-03-17 04:52:00,9.7,1.5,29.57,NE,45,0.0,0.0,69,0.00,,,0.00,WUHU21623XXSP,2013-03-17 09:52:00,
2013-03-17 04:57:00,9.5,1.3,29.57,NE,45,0.0,0.0,69,0.00,,,0.00,WUHU21623XXSP,2013-03-17 09:57:00,
2013-03-17 05:02:00,9.3,1.2,29.57,NE,45,0.0,0.0,69,0.00,,,0.00,WUHU21623XXSP,2013-03-17 10:02:00,
2013-03-17 05:07:00,9.1,1.0,29.56,NE,45,0.0,0.0,69,0.00,,,0.00,WUHU21623XXSP,2013-03-17 10:07:00,
2013-03-17 05:12:00,9.1,1.0,29.56,NE,45,0.0,0.0,69,0.00,,,0.00,WUHU21623XXSP,2013-03-17 10:12:00,
2013-03-17 05:17:00,9.1,1.0,29.56,NE,45,0.0,0.0,69,0.00,,,0.00,WUHU21623XXSP,2013-03-17 10:17:00,
2013-03-17 05:22:00,9.0,0.8,29.57,NE,45,0.0,0.0,69,0.00,,,0.00,WUHU21623XXSP,2013-03-17 10:22:00,
2013-03-17 05:27:00,9.0,0.8,29.57,NE,45,0.0,0.0,69,0.00,,,0.00,WUHU21623XXSP,2013-03-17 10:27:00,
2013-03-17 05:32:00,9.0,0.8,29.57,NE,45,0.0,0.0,69,0.00,,,0.00,WUHU21623XXSP,2013-03-17 10:32:00,
2013-03-17 05:38:00,8.8,0.7,29.57,NE,45,0.0,0.0,69,0.00,,,0.00,WUHU21623XXSP,2013-03-17 10:38:00,
2013-03-17 05:43:00,8.8,0.7,29.57,NE,45,0.0,0.0,69,0.00,,,0.00,WUHU21623XXSP,2013-03-17 10:43:00,
2013-03-17 05:48:00,8.6,0.5,29.56,NE,45,0.0,0.0,69,0.00,,,0.00,WUHU21623XXSP,2013-03-17 10:48:00,
2013-03-17 05:53:00,8.6,0.5,29.56,NE,45,0.0,0.0,69,0.00,,,0.00,WUHU21623XXSP,2013-03-17 10:53:00,
2013-03-17 05:58:00,8.4,0.3,29.56,NE,45,0.0,0.0,69,0.00,,,0.00,WUHU21623XXSP,2013-03-17 10:58:00,
2013-03-17 06:03:00,8.4,0.3,29.56,NE,45,0.0,0.0,69,0.00,,,0.00,WUHU21623XXSP,2013-03-17 11:03:00,
2013-03-17 06:08:00,8.4,0.3,29.56,NE,45,0.0,0.0,69,0.00,,,0.00,WUHU21623XXSP,2013-03-17 11:08:00,
2013-03-17 06:13:00,8.2,0.2,29.56,NE,45,0.0,0.0,69,0.00,,,0.00,WUHU21623XXSP,2013-03-17 11:13:00,
2013-03-17 06:18:00,8.1,0.0,29.56,NE,45,0.0,0.0,69,0.00,,,0.00,WUHU21623XXSP,2013-03-17 11:18:00,
2013-03-17 06:23:00,8.1,0.0,29.56,NE,45,0.0,0.0,69,0.00,,,0.00,WUHU21623XXSP,2013-03-17 11:23:00,
2013-03-17 06:28:00,7.9,-0.2,29.56,NE,45,0.0,0.0,69,0.00,,,0.00,WUHU21623XXSP,2013-03-17 11:28:00,
2013-03-17 06:33:00,7.9,0.1,29.56,NE,45,0.0,0.0,70,0.00,,,0.00,WUHU21623XXSP,2013-03-17 11:33:00,
2013-03-17 06:38:00,7.9,0.1,29.56,NE,45,0.0,0.0,70,0.00,,,0.00,WUHU21623XXSP,2013-03-17 11:38:00,
2013-03-17 06:43:00,7.7,0.0,29.56,NE,45,0.0,0.0,70,0.00,,,0.00,WUHU21623XXSP,2013-03-17 11:43:00,
2013-03-17 06:48:00,7.5,0.0,29.57,NE,45,0.0,0.0,70,0.00,,,0.00,WUHU21623XXSP,2013-03-17 11:48:00,
2013-03-17 06:53:00,7.5,-0.2,29.57,NE,45,0.0,0.0,70,0.00,,,0.00,WUHU21623XXSP,2013-03-17 11:53:00,
2013-03-17 06:58:00,7.5,-0.2,29.57,NE,45,0.0,0.0,70,0.00,,,0.00,WUHU21623XXSP,2013-03-17 11:58:00,
2013-03-17 07:03:00,7.5,-0.2,29.56,NE,45,0.0,0.0,70,0.00,,,0.00,WUHU21623XXSP,2013-03-17 12:03:00,
2013-03-17 07:08:00,7.3,-0.4,29.57,NE,45,0.0,0.0,70,0.00,,,0.00,WUHU21623XXSP,2013-03-17 12:08:00,
2013-03-17 07:13:00,7.2,-0.6,29.57,NE,45,0.0,0.0,70,0.00,,,0.00,WUHU21623XXSP,2013-03-17 12:13:00,
2013-03-17 07:18:00,7.0,-0.8,29.56,NE,45,0.0,0.0,70,0.00,,,0.00,WUHU21623XXSP,2013-03-17 12:18:00,
2013-03-17 07:23:00,7.2,-0.6,29.57,NE,45,0.0,0.0,70,0.00,,,0.00,WUHU21623XXSP,2013-03-17 12:23:00,
2013-03-17 07:28:00,7.0,-0.8,29.57,NE,45,0.0,0.0,70,0.00,,,0.00,WUHU21623XXSP,2013-03-17 12:28:00,
2013-03-17 07:33:00,7.2,-0.6,29.56,NE,45,0.0,0.0,70,0.00,,,0.00,WUHU21623XXSP,2013-03-17 12:33:00,
2013-03-17 07:38:00,7.5,-0.2,29.56,NE,45,0.0,0.0,70,0.00,,,0.00,WUHU21623XXSP,2013-03-17 12:38:00,
2013-03-17 07:43:00,7.9,0.1,29.56,NE,45,0.0,0.0,70,0.00,,,0.00,WUHU21623XXSP,2013-03-17 12:43:00,
2013-03-17 07:49:00,8.8,1.0,29.56,NE,45,0.0,0.0,70,0.00,,,0.00,WUHU21623XXSP,2013-03-17 12:49:00,
2013-03-17 07:54:00,10.2,2.6,29.56,NE,45,0.0,0.0,71,0.00,,,0.00,WUHU21623XXSP,2013-03-17 12:54:00,
2013-03-17 07:59:00,11.7,3.7,29.56,NE,45,0.0,0.0,70,0.00,,,0.00,WUHU21623XXSP,2013-03-17 12:59:00,
2013-03-17 08:04:00,12.9,4.7,29.56,NE,45,0.0,0.0,69,0.00,,,0.00,WUHU21623XXSP,2013-03-17 13:04:00,
2013-03-17 08:09:00,14.2,4.9,29.55,NE,45,0.0,0.0,66,0.00,,,0.00,WUHU21623XXSP,2013-03-17 13:09:00,
2013-03-17 08:14:00,13.8,3.8,29.55,NE,45,0.0,0.0,64,0.00,,,0.00,WUHU21623XXSP,2013-03-17 13:14:00,
2013-03-17 08:19:00,13.6,3.7,29.56,NE,45,0.0,0.0,64,0.00,,,0.00,WUHU21623XXSP,2013-03-17 13:19:00,
2013-03-17 08:24:00,14.7,4.7,29.55,NE,45,0.0,0.0,64,0.00,,,0.00,WUHU21623XXSP,2013-03-17 13:24:00,
2013-03-17 08:29:00,16.0,5.8,29.55,NE,45,0.0,0.0,64,0.00,,,0.00,WUHU21623XXSP,2013-03-17 13:29:00,
2013-03-17 08:34:00,17.4,6.2,29.54,NE,45,0.0,0.0,61,0.00,,,0.00,WUHU21623XXSP,2013-03-17 13:34:00,
2013-03-17 08:39:00,17.4,5.5,29.55,NE,45,0.0,0.0,59,0.00,,,0.00,WUHU21623XXSP,2013-03-17 13:39:00,
2013-03-17 08:44:00,16.7,4.8,29.55,NE,45,0.0,0.0,59,0.00,,,0.00,WUHU21623XXSP,2013-03-17 13:44:00,
2013-03-17 08:49:00,17.4,5.5,29.56,NE,45,0.0,0.0,59,0.00,,,0.00,WUHU21623XXSP,2013-03-17 13:49:00,
2013-03-17 08:54:00,18.3,5.9,29.56,NE,45,0.0,0.0,58,0.00,,,0.00,WUHU21623XXSP,2013-03-17 13:54:00,
2013-03-17 08:59:00,19.2,6.0,29.56,NE,45,0.0,0.0,56,0.00,,,0.00,WUHU21623XXSP,2013-03-17 13:59:00,
2013-03-17 09:04:00,20.1,6.8,29.57,NE,45,0.0,0.0,56,0.00,,,0.00,WUHU21623XXSP,2013-03-17 14:04:00,
2013-03-17 09:09:00,21.0,7.3,29.57,NE,45,0.0,0.0,55,0.00,,,0.00,WUHU21623XXSP,2013-03-17 14:09:00,
2013-03-17 09:14:00,21.4,7.2,29.57,NE,45,0.0,0.0,54,0.00,,,0.00,WUHU21623XXSP,2013-03-17 14:14:00,
2013-03-17 09:19:00,21.6,7.1,29.56,NE,45,0.0,0.0,53,0.00,,,0.00,WUHU21623XXSP,2013-03-17 14:19:00,
2013-03-17 09:25:00,21.7,6.7,29.56,NE,45,0.0,0.0,52,0.00,,,0.00,WUHU21623XXSP,2013-03-17 14:25:00,
2013-03-17 09:30:00,21.9,6.5,29.56,NE,45,0.0,0.0,51,0.00,,,0.00,WUHU21623XXSP,2013-03-17 14:30:00,
2013-03-17 09:35:00,22.1,6.7,29.56,NE,45,0.0,0.0,51,0.00,,,0.00,WUHU21623XXSP,2013-03-17 14:35:00,
2013-03-17 09:40:00,22.3,6.8,29.56,NE,45,0.0,0.0,50,0.00,,,0.00,WUHU21623XXSP,2013-03-17 14:40:00,
2013-03-17 09:45:00,22.5,6.6,29.56,NE,45,0.0,0.0,50,0.00,,,0.00,WUHU21623XXSP,2013-03-17 14:45:00,
2013-03-17 09:50:00,22.6,6.8,29.56,NE,45,0.0,0.0,50,0.00,,,0.00,WUHU21623XXSP,2013-03-17 14:50:00,
2013-03-17 09:55:00,22.6,6.8,29.56,NE,45,0.0,0.0,50,0.00,,,0.00,WUHU21623XXSP,2013-03-17 14:55:00,
2013-03-17 10:00:00,23.0,7.2,29.56,NE,45,0.0,0.0,50,0.00,,,0.00,WUHU21623XXSP,2013-03-17 15:00:00,
2013-03-17 10:05:00,23.4,7.0,29.57,NE,45,0.0,0.0,49,0.00,,,0.00,WUHU21623XXSP,2013-03-17 15:05:00,
2013-03-17 10:10:00,23.5,7.2,29.56,NE,45,0.0,0.0,49,0.00,,,0.00,WUHU21623XXSP,2013-03-17 15:10:00,
2013-03-17 10:15:00,24.1,7.6,29.56,NE,45,0.0,3.1,49,0.00,,,0.00,WUHU21623XXSP,2013-03-17 15:15:00,
2013-03-17 10:20:00,24.3,7.8,29.56,NE,45,2.9,3.1,49,0.00,,,0.00,WUHU21623XXSP,2013-03-17 15:20:00,
2013-03-17 10:25:00,24.4,8.0,29.56,NE,45,0.0,2.9,49,0.00,,,0.00,WUHU21623XXSP,2013-03-17 15:25:00,
2013-03-17 10:30:00,25.5,8.9,29.56,NE,45,0.0,0.0,49,0.00,,,0.00,WUHU21623XXSP,2013-03-17 15:30:00,
2013-03-17 10:35:00,25.5,8.5,29.56,NE,45,0.0,0.0,48,0.00,,,0.00,WUHU21623XXSP,2013-03-17 15:35:00,
2013-03-17 10:40:00,25.9,8.8,29.55,NE,45,2.2,2.2,48,0.00,,,0.00,WUHU21623XXSP,2013-03-17 15:40:00,
2013-03-17 10:45:00,26.6,8.9,29.55,NE,45,0.0,2.2,47,0.00,,,0.00,WUHU21623XXSP,2013-03-17 15:45:00,
2013-03-17 10:50:00,25.9,8.8,29.55,NE,45,0.0,0.0,48,0.00,,,0.00,WUHU21623XXSP,2013-03-17 15:50:00,
2013-03-17 10:55:00,24.6,8.1,29.54,NE,45,0.0,0.0,49,0.00,,,0.00,WUHU21623XXSP,2013-03-17 15:55:00,
2013-03-17 11:00:00,25.0,8.6,29.54,NE,45,0.0,0.0,50,0.00,,,0.00,WUHU21623XXSP,2013-03-17 16:00:00,
2013-03-17 11:05:00,26.1,9.9,29.54,NE,45,0.0,0.0,50,0.00,,,0.00,WUHU21623XXSP,2013-03-17 16:05:00,
2013-03-17 11:10:00,27.0,10.8,29.54,NE,45,0.0,0.0,50,0.00,,,0.00,WUHU21623XXSP,2013-03-17 16:10:00,
2013-03-17 11:15:00,29.1,12.3,29.54,NE,45,0.0,0.0,49,0.00,,,0.00,WUHU21623XXSP,2013-03-17 16:15:00,
2013-03-17 11:20:00,30.7,13.8,29.54,NE,45,0.0,4.7,49,0.00,,,0.00,WUHU21623XXSP,2013-03-17 16:20:00,
2013-03-17 11:25:00,32.4,14.3,29.53,NE,45,0.0,4.7,47,0.00,,,0.00,WUHU21623XXSP,2013-03-17 16:25:00,
2013-03-17 11:30:00,32.7,14.1,29.53,NE,45,0.0,2.5,46,0.00,,,0.00,WUHU21623XXSP,2013-03-17 16:30:00,
2013-03-17 11:35:00,33.4,14.2,29.53,NE,45,0.0,2.5,45,0.00,,,0.00,WUHU21623XXSP,2013-03-17 16:35:00,
2013-03-17 11:40:00,34.9,15.6,29.52,NE,45,0.0,0.0,45,0.00,,,0.00,WUHU21623XXSP,2013-03-17 16:40:00,
2013-03-17 11:45:00,36.0,16.1,29.52,NE,45,5.1,5.1,44,0.00,,,0.00,WUHU21623XXSP,2013-03-17 16:45:00,
2013-03-17 11:50:00,36.7,16.2,29.51,NE,45,0.0,5.1,43,0.00,,,0.00,WUHU21623XXSP,2013-03-17 16:50:00,
2013-03-17 11:55:00,38.3,17.6,29.52,NE,45,0.0,0.0,43,0.00,,,0.00,WUHU21623XXSP,2013-03-17 16:55:00,
2013-03-17 12:00:00,39.9,18.0,29.51,NE,45,0.0,4.3,41,0.00,,,0.00,WUHU21623XXSP,2013-03-17 17:00:00,
2013-03-17 12:05:00,40.3,18.4,29.51,NE,45,0.0,4.3,41,0.00,,,0.00,WUHU21623XXSP,2013-03-17 17:05:00,
2013-03-17 12:10:00,41.2,18.0,29.51,NE,45,0.0,4.9,39,0.00,,,0.00,WUHU21623XXSP,2013-03-17 17:10:00,
2013-03-17 12:15:00,40.8,17.0,29.51,NE,45,0.0,4.9,38,0.00,,,0.00,WUHU21623XXSP,2013-03-17 17:15:00,
2013-03-17 12:20:00,41.2,18.7,29.51,NE,45,0.0,1.8,40,0.00,,,0.00,WUHU21623XXSP,2013-03-17 17:20:00,
2013-03-17 12:25:00,41.7,18.5,29.51,NE,45,0.0,6.9,39,0.00,,,0.00,WUHU21623XXSP,2013-03-17 17:25:00,
2013-03-17 12:30:00,41.2,17.3,29.51,NE,45,0.0,6.9,38,0.00,,,0.00,WUHU21623XXSP,2013-03-17 17:30:00,
2013-03-17 12:35:00,39.4,15.7,29.51,NE,45,0.0,0.0,38,0.00,,,0.00,WUHU21623XXSP,2013-03-17 17:35:00,
2013-03-17 12:41:00,38.8,16.6,29.51,South,180,0.0,0.0,40,0.00,,,0.00,WUHU21623XXSP,2013-03-17 17:41:00,
2013-03-17 12:46:00,39.6,16.1,29.50,SSE,157,0.0,0.0,39,0.00,,,0.00,WUHU21623XXSP,2013-03-17 17:46:00,
2013-03-17 12:51:00,39.7,16.1,29.50,ESE,112,5.8,5.8,38,0.00,,,0.00,WUHU21623XXSP,2013-03-17 17:51:00,
2013-03-17 12:56:00,39.6,17.2,29.50,ESE,112,0.0,5.8,40,0.00,,,0.00,WUHU21623XXSP,2013-03-17 17:56:00,
2013-03-17 13:01:00,40.3,17.9,29.49,SSE,157,0.0,3.8,40,0.00,,,0.00,WUHU21623XXSP,2013-03-17 18:01:00,
2013-03-17 13:06:00,40.3,17.2,29.49,ESE,112,0.0,3.4,39,0.00,,,0.00,WUHU21623XXSP,2013-03-17 18:06:00,
2013-03-17 13:11:00,39.0,16.1,29.48,SE,135,4.7,4.7,39,0.00,,,0.00,WUHU21623XXSP,2013-03-17 18:11:00,
2013-03-17 13:16:00,37.6,15.4,29.48,SE,135,1.6,4.7,39,0.00,,,0.00,WUHU21623XXSP,2013-03-17 18:16:00,
2013-03-17 13:21:00,36.3,14.3,29.48,South,180,0.4,3.6,40,0.00,,,0.00,WUHU21623XXSP,2013-03-17 18:21:00,
2013-03-17 13:26:00,36.1,15.2,29.48,South,180,8.7,8.7,42,0.00,,,0.00,WUHU21623XXSP,2013-03-17 18:26:00,
2013-03-17 13:31:00,35.8,14.3,29.47,South,180,1.1,8.7,41,0.00,,,0.00,WUHU21623XXSP,2013-03-17 18:31:00,
2013-03-17 13:36:00,36.0,15.0,29.47,East,90,0.0,5.4,42,0.00,,,0.00,WUHU21623XXSP,2013-03-17 18:36:00,
2013-03-17 13:41:00,35.8,14.8,29.47,SSW,202,6.0,7.8,42,0.00,,,0.00,WUHU21623XXSP,2013-03-17 18:41:00,
2013-03-17 13:46:00,35.2,14.3,29.46,SE,135,0.0,7.8,42,0.00,,,0.00,WUHU21623XXSP,2013-03-17 18:46:00,
2013-03-17 13:51:00,35.4,15.0,29.46,SE,135,0.0,5.4,43,0.00,,,0.00,WUHU21623XXSP,2013-03-17 18:51:00,
2013-03-17 13:57:00,35.4,15.0,29.46,WSW,247,0.0,2.7,43,0.00,,,0.00,WUHU21623XXSP,2013-03-17 18:57:00,
2013-03-17 14:02:00,34.9,15.0,29.45,WSW,247,0.0,0.0,44,0.00,,,0.00,WUHU21623XXSP,2013-03-17 19:02:00,
2013-03-17 14:07:00,34.9,15.0,29.44,WSW,247,6.7,6.7,44,0.00,,,0.00,WUHU21623XXSP,2013-03-17 19:07:00,
2013-03-17 14:12:00,34.5,14.7,29.44,WSW,247,0.0,6.7,44,0.00,,,0.00,WUHU21623XXSP,2013-03-17 19:12:00,
2013-03-17 14:17:00,34.3,15.0,29.44,WSW,247,7.6,7.6,45,0.00,,,0.00,WUHU21623XXSP,2013-03-17 19:17:00,
2013-03-17 14:22:00,34.2,14.9,29.44,NE,45,0.0,7.6,45,0.00,,,0.00,WUHU21623XXSP,2013-03-17 19:22:00,
2013-03-17 14:27:00,34.2,14.9,29.43,SE,135,6.7,6.7,45,0.00,,,0.00,WUHU21623XXSP,2013-03-17 19:27:00,
2013-03-17 14:32:00,32.2,13.1,29.42,SE,135,0.0,6.7,45,0.00,,,0.00,WUHU21623XXSP,2013-03-17 19:32:00,
2013-03-17 14:37:00,31.8,13.3,29.41,WSW,247,2.2,7.2,46,0.00,,,0.00,WUHU21623XXSP,2013-03-17 19:37:00,
2013-03-17 14:42:00,32.4,13.6,29.41,WSW,247,0.0,7.2,47,0.00,,,0.00,WUHU21623XXSP,2013-03-17 19:42:00,
2013-03-17 14:47:00,31.6,14.1,29.40,WSW,247,7.2,9.4,48,0.00,,,0.00,WUHU21623XXSP,2013-03-17 19:47:00,
2013-03-17 14:52:00,30.9,14.0,29.40,WSW,247,7.2,9.4,49,0.00,,,0.00,WUHU21623XXSP,2013-03-17 19:52:00,
2013-03-17 14:57:00,30.0,14.1,29.39,WSW,247,9.6,10.3,51,0.00,,,0.00,WUHU21623XXSP,2013-03-17 19:57:00,
2013-03-17 15:02:00,30.0,14.1,29.39,WSW,247,9.2,10.3,51,0.00,,,0.00,WUHU21623XXSP,2013-03-17 20:02:00,
2013-03-17 15:07:00,30.0,14.5,29.38,WSW,247,9.6,10.3,52,0.00,,,0.00,WUHU21623XXSP,2013-03-17 20:07:00,
2013-03-17 15:12:00,30.2,15.1,29.38,ESE,112,8.9,9.6,53,0.00,,,0.00,WUHU21623XXSP,2013-03-17 20:12:00,
2013-03-17 15:17:00,30.0,14.5,29.38,East,90,7.6,8.9,52,0.00,,,0.00,WUHU21623XXSP,2013-03-17 20:17:00,
2013-03-17 15:22:00,28.9,14.8,29.38,ESE,112,7.8,8.1,55,0.00,,,0.00,WUHU21623XXSP,2013-03-17 20:22:00,
2013-03-17 15:28:00,28.9,14.3,29.38,SE,135,5.1,9.2,54,0.00,,,0.00,WUHU21623XXSP,2013-03-17 20:28:00,
2013-03-17 15:33:00,28.9,14.3,29.37,SE,135,10.7,10.7,53,0.00,,,0.00,WUHU21623XXSP,2013-03-17 20:33:00,
2013-03-17 15:38:00,29.1,13.9,29.37,SE,135,10.7,10.7,53,0.00,,,0.00,WUHU21623XXSP,2013-03-17 20:38:00,
2013-03-17 15:43:00,29.8,14.7,29.37,ESE,112,7.2,10.7,53,0.00,,,0.00,WUHU21623XXSP,2013-03-17 20:43:00,
2013-03-17 15:48:00,30.0,14.9,29.37,SE,135,8.7,8.7,53,0.00,,,0.00,WUHU21623XXSP,2013-03-17 20:48:00,
2013-03-17 15:53:00,29.8,15.2,29.37,ESE,112,9.8,9.8,54,0.00,,,0.00,WUHU21623XXSP,2013-03-17 20:53:00,
2013-03-17 15:58:00,29.3,14.5,29.37,ESE,112,9.4,14.1,55,0.00,,,0.00,WUHU21623XXSP,2013-03-17 20:58:00,
2013-03-17 16:03:00,29.5,14.8,29.37,ESE,112,10.7,10.7,54,0.00,,,0.00,WUHU21623XXSP,2013-03-17 21:03:00,
2013-03-17 16:08:00,29.5,14.8,29.37,ESE,112,8.5,10.7,54,0.00,,,0.00,WUHU21623XXSP,2013-03-17 21:08:00,
2013-03-17 16:13:00,30.0,15.3,29.37,ESE,112,6.5,10.1,54,0.00,,,0.00,WUHU21623XXSP,2013-03-17 21:13:00,
2013-03-17 16:18:00,30.6,15.8,29.37,ESE,112,4.7,8.5,54,0.00,,,0.00,WUHU21623XXSP,2013-03-17 21:18:00,
2013-03-17 16:23:00,29.7,15.8,29.36,ESE,112,8.1,10.3,56,0.00,,,0.00,WUHU21623XXSP,2013-03-17 21:23:00,
2013-03-17 16:28:00,29.5,15.2,29.36,SE,135,7.2,10.3,55,0.00,,,0.00,WUHU21623XXSP,2013-03-17 21:28:00,
2013-03-17 16:33:00,29.8,15.6,29.37,ESE,112,9.2,9.2,55,0.00,,,0.00,WUHU21623XXSP,2013-03-17 21:33:00,
2013-03-17 16:38:00,29.5,15.7,29.37,ESE,112,6.9,9.2,56,0.00,,,0.00,WUHU21623XXSP,2013-03-17 21:38:00,
2013-03-17 16:43:00,29.5,15.2,29.37,ESE,112,7.6,9.2,55,0.00,,,0.00,WUHU21623XXSP,2013-03-17 21:43:00,
2013-03-17 16:48:00,29.5,15.7,29.37,East,90,5.6,7.6,56,0.00,,,0.00,WUHU21623XXSP,2013-03-17 21:48:00,
2013-03-17 16:53:00,29.7,15.8,29.36,SE,135,7.2,7.2,56,0.00,,,0.00,WUHU21623XXSP,2013-03-17 21:53:00,
2013-03-17 16:58:00,30.0,16.1,29.37,ESE,112,7.4,7.4,56,0.00,,,0.00,WUHU21623XXSP,2013-03-17 21:58:00,
2013-03-17 17:04:00,30.0,15.7,29.36,ESE,112,7.6,7.6,55,0.00,,,0.00,WUHU21623XXSP,2013-03-17 22:04:00,
2013-03-17 17:09:00,30.4,16.5,29.35,ESE,112,6.7,7.6,56,0.00,,,0.00,WUHU21623XXSP,2013-03-17 22:09:00,
2013-03-17 17:14:00,30.4,16.5,29.35,WSW,247,4.5,6.7,56,0.00,,,0.00,WUHU21623XXSP,2013-03-17 22:14:00,
2013-03-17 17:19:00,30.2,15.9,29.35,SE,135,7.8,7.8,55,0.00,,,0.00,WUHU21623XXSP,2013-03-17 22:19:00,
2013-03-17 17:24:00,30.0,16.1,29.35,SE,135,6.0,7.8,56,0.00,,,0.00,WUHU21623XXSP,2013-03-17 22:24:00,
2013-03-17 17:29:00,29.5,15.7,29.35,SE,135,6.7,8.5,56,0.00,,,0.00,WUHU21623XXSP,2013-03-17 22:29:00,
2013-03-17 17:34:00,29.1,15.3,29.35,ESE,112,6.5,8.5,56,0.00,,,0.00,WUHU21623XXSP,2013-03-17 22:34:00,
2013-03-17 17:39:00,28.9,15.6,29.34,SE,135,0.0,6.7,57,0.00,,,0.00,WUHU21623XXSP,2013-03-17 22:39:00,
2013-03-17 17:44:00,28.9,15.6,29.34,SE,135,0.0,6.5,57,0.00,,,0.00,WUHU21623XXSP,2013-03-17 22:44:00,
2013-03-17 17:49:00,29.3,16.2,29.34,South,180,0.0,3.8,58,0.00,,,0.00,WUHU21623XXSP,2013-03-17 22:49:00,
2013-03-17 17:54:00,29.3,16.3,29.34,South,180,0.0,0.0,58,0.00,,,0.00,WUHU21623XXSP,2013-03-17 22:54:00,
2013-03-17 17:59:00,29.3,16.3,29.34,SE,135,0.0,0.0,58,0.00,,,0.00,WUHU21623XXSP,2013-03-17 22:59:00,
2013-03-17 18:04:00,29.5,16.5,29.34,SE,135,0.0,0.0,58,0.00,,,0.00,WUHU21623XXSP,2013-03-17 23:04:00,
2013-03-17 18:09:00,29.7,16.6,29.33,SE,135,0.0,0.0,58,0.00,,,0.00,WUHU21623XXSP,2013-03-17 23:09:00,
2013-03-17 18:14:00,29.7,16.2,29.34,East,90,0.0,0.0,57,0.00,,,0.00,WUHU21623XXSP,2013-03-17 23:14:00,
2013-03-17 18:19:00,29.5,16.5,29.33,East,90,0.0,0.0,58,0.00,,,0.00,WUHU21623XXSP,2013-03-17 23:19:00,
2013-03-17 18:24:00,29.1,16.2,29.33,SE,135,0.0,0.0,58,0.00,,,0.00,WUHU21623XXSP,2013-03-17 23:24:00,
2013-03-17 18:29:00,28.8,16.3,29.33,SE,135,0.0,0.0,59,0.00,,,0.00,WUHU21623XXSP,2013-03-17 23:29:00,
2013-03-17 18:34:00,28.6,16.1,29.33,ESE,112,0.0,3.4,59,0.00,,,0.00,WUHU21623XXSP,2013-03-17 23:34:00,
2013-03-17 18:39:00,28.6,16.1,29.32,ESE,112,0.0,3.4,59,0.00,,,0.00,WUHU21623XXSP,2013-03-17 23:39:00,
2013-03-17 18:44:00,28.2,16.2,29.32,ESE,112,1.3,1.3,60,0.00,,,0.00,WUHU21623XXSP,2013-03-17 23:44:00,
2013-03-17 18:49:00,27.7,15.6,29.32,SE,135,0.0,1.3,60,0.00,,,0.00,WUHU21623XXSP,2013-03-17 23:49:00,
2013-03-17 18:54:00,27.5,15.8,29.31,ESE,112,5.6,5.6,61,0.00,,,0.00,WUHU21623XXSP,2013-03-17 23:54:00,
2013-03-17 18:59:00,27.1,15.6,29.31,ESE,112,2.5,5.6,61,0.00,,,0.00,WUHU21623XXSP,2013-03-17 23:59:00,
2013-03-17 19:04:00,26.4,15.1,29.31,ESE,112,3.8,5.8,62,0.00,,,0.00,WUHU21623XXSP,2013-03-18 00:04:00,
2013-03-17 19:09:00,26.2,15.3,29.31,ESE,112,4.3,5.8,63,0.00,,,0.00,WUHU21623XXSP,2013-03-18 00:09:00,
2013-03-17 19:14:00,25.9,14.9,29.32,ESE,112,2.7,4.3,63,0.00,,,0.00,WUHU21623XXSP,2013-03-18 00:14:00,
2013-03-17 19:19:00,25.5,15.0,29.31,ESE,112,0.0,4.3,64,0.00,,,0.00,WUHU21623XXSP,2013-03-18 00:19:00,
2013-03-17 19:24:00,25.5,15.0,29.31,ESE,112,3.6,4.3,64,0.00,,,0.00,WUHU21623XXSP,2013-03-18 00:24:00,
2013-03-17 19:29:00,25.0,14.4,29.32,ESE,112,0.0,4.7,64,0.00,,,0.00,WUHU21623XXSP,2013-03-18 00:29:00,
2013-03-17 19:34:00,24.6,14.4,29.31,ESE,112,0.0,4.7,65,0.00,,,0.00,WUHU21623XXSP,2013-03-18 00:34:00,
2013-03-17 19:39:00,24.6,14.4,29.31,SE,135,0.0,0.0,65,0.00,,,0.00,WUHU21623XXSP,2013-03-18 00:39:00,
2013-03-17 19:44:00,24.4,14.3,29.31,ESE,112,4.7,4.7,65,0.00,,,0.00,WUHU21623XXSP,2013-03-18 00:44:00,
2013-03-17 19:49:00,24.1,14.3,29.31,ESE,112,0.0,4.7,66,0.00,,,0.00,WUHU21623XXSP,2013-03-18 00:49:00,
2013-03-17 19:54:00,23.9,14.1,29.31,ESE,112,0.0,4.5,66,0.00,,,0.00,WUHU21623XXSP,2013-03-18 00:54:00,
2013-03-17 19:59:00,23.7,14.3,29.30,ESE,112,4.0,5.4,67,0.00,,,0.00,WUHU21623XXSP,2013-03-18 00:59:00,
2013-03-17 20:05:00,23.5,14.1,29.30,ESE,112,3.6,5.4,67,0.00,,,0.00,WUHU21623XXSP,2013-03-18 01:05:00,
2013-03-17 20:10:00,23.7,14.3,29.30,SE,135,5.1,5.1,67,0.00,,,0.00,WUHU21623XXSP,2013-03-18 01:10:00,
2013-03-17 20:15:00,23.9,14.5,29.30,ESE,112,0.0,5.1,67,0.00,,,0.00,WUHU21623XXSP,2013-03-18 01:15:00,
2013-03-17 20:20:00,23.9,14.5,29.30,ESE,112,5.8,5.8,67,0.00,,,0.00,WUHU21623XXSP,2013-03-18 01:20:00,
2013-03-17 20:25:00,23.9,14.5,29.30,ESE,112,4.9,5.8,67,0.00,,,0.00,WUHU21623XXSP,2013-03-18 01:25:00,
2013-03-17 20:30:00,24.1,14.6,29.29,SE,135,8.9,8.9,67,0.00,,,0.00,WUHU21623XXSP,2013-03-18 01:30:00,
2013-03-17 20:35:00,24.1,14.6,29.29,ESE,112,7.4,8.9,67,0.00,,,0.00,WUHU21623XXSP,2013-03-18 01:35:00,
2013-03-17 20:40:00,24.1,14.6,29.28,ESE,112,6.9,7.4,67,0.00,,,0.00,WUHU21623XXSP,2013-03-18 01:40:00,
2013-03-17 20:45:00,24.4,15.0,29.28,ESE,112,6.9,7.2,67,0.00,,,0.00,WUHU21623XXSP,2013-03-18 01:45:00,
2013-03-17 20:50:00,24.6,15.5,29.27,ESE,112,5.8,6.9,68,0.00,,,0.00,WUHU21623XXSP,2013-03-18 01:50:00,
2013-03-17 20:55:00,24.6,15.5,29.27,ESE,112,6.5,7.6,68,0.00,,,0.00,WUHU21623XXSP,2013-03-18 01:55:00,
2013-03-17 21:00:00,25.0,15.5,29.27,ESE,112,0.0,7.6,67,0.00,,,0.00,WUHU21623XXSP,2013-03-18 02:00:00,
2013-03-17 21:05:00,25.3,15.8,29.28,SE,135,0.0,0.0,67,0.00,,,0.00,WUHU21623XXSP,2013-03-18 02:05:00,
2013-03-17 21:10:00,25.9,16.4,29.28,East,90,4.9,4.9,67,0.00,,,0.00,WUHU21623XXSP,2013-03-18 02:10:00,
2013-03-17 21:15:00,26.2,16.5,29.27,ESE,112,5.8,5.8,67,0.00,,,0.00,WUHU21623XXSP,2013-03-18 02:15:00,
2013-03-17 21:20:00,26.4,16.9,29.27,SSE,157,3.4,5.8,67,0.00,,,0.00,WUHU21623XXSP,2013-03-18 02:20:00,
2013-03-17 21:25:00,26.6,17.4,29.27,SSE,157,6.3,6.3,68,0.00,,,0.00,WUHU21623XXSP,2013-03-18 02:25:00,
2013-03-17 21:30:00,26.6,17.4,29.28,SE,135,0.0,6.3,68,0.00,,,0.00,WUHU21623XXSP,2013-03-18 02:30:00,
2013-03-17 21:35:00,26.6,17.4,29.28,East,90,7.4,7.4,68,0.00,,,0.00,WUHU21623XXSP,2013-03-18 02:35:00,
2013-03-17 21:40:00,26.6,17.8,29.28,ESE,112,0.0,8.1,69,0.00,,,0.00,WUHU21623XXSP,2013-03-18 02:40:00,
2013-03-17 21:45:00,26.6,17.8,29.27,ESE,112,0.0,8.1,69,0.00,,,0.00,WUHU21623XXSP,2013-03-18 02:45:00,
2013-03-17 21:51:00,26.6,17.8,29.27,ESE,112,0.0,5.6,69,0.00,,,0.00,WUHU21623XXSP,2013-03-18 02:51:00,
2013-03-17 21:56:00,26.8,18.3,29.27,SSE,157,0.0,6.5,70,0.00,,,0.00,WUHU21623XXSP,2013-03-18 02:56:00,
2013-03-17 22:01:00,26.8,18.3,29.27,SE,135,4.9,6.5,70,0.00,,,0.00,WUHU21623XXSP,2013-03-18 03:01:00,
2013-03-17 22:06:00,26.8,18.3,29.27,SSE,157,2.2,7.6,70,0.00,,,0.00,WUHU21623XXSP,2013-03-18 03:06:00,
2013-03-17 22:11:00,26.8,18.6,29.27,ESE,112,4.9,7.6,71,0.00,,,0.00,WUHU21623XXSP,2013-03-18 03:11:00,
2013-03-17 22:16:00,26.8,18.6,29.26,East,90,3.1,5.1,71,0.00,,,0.00,WUHU21623XXSP,2013-03-18 03:16:00,
2013-03-17 22:21:00,26.8,18.6,29.26,SSE,157,2.7,5.1,71,0.00,,,0.00,WUHU21623XXSP,2013-03-18 03:21:00,
2013-03-17 22:26:00,27.0,18.8,29.26,South,180,7.6,7.6,71,0.00,,,0.00,WUHU21623XXSP,2013-03-18 03:26:00,
2013-03-17 22:31:00,27.0,18.8,29.26,ENE,67,5.6,7.6,71,0.00,,,0.00,WUHU21623XXSP,2013-03-18 03:31:00,
2013-03-17 22:36:00,27.0,18.8,29.25,SE,135,0.0,5.6,71,0.00,,,0.00,WUHU21623XXSP,2013-03-18 03:36:00,
2013-03-17 22:41:00,27.1,19.0,29.26,East,90,0.0,4.9,71,0.00,,,0.00,WUHU21623XXSP,2013-03-18 03:41:00,
2013-03-17 22:46:00,27.1,19.0,29.26,SE,135,0.0,3.4,71,0.00,,,0.00,WUHU21623XXSP,2013-03-18 03:46:00,
2013-03-17 22:51:00,27.1,19.0,29.27,SSE,157,4.3,4.3,71,0.00,,,0.00,WUHU21623XXSP,2013-03-18 03:51:00,
2013-03-17 22:56:00,27.1,19.0,29.26,South,180,1.8,4.3,71,0.00,,,0.00,WUHU21623XXSP,2013-03-18 03:56:00,
2013-03-17 23:00:00,27.1,19.0,29.26,SSE,157,0.0,4.3,72,0.00,,,0.00,WUHU21623XXSP,2013-03-18 04:00:00,
2013-03-17 23:01:00,27.1,19.0,29.26,SSE,157,0.0,1.8,72,0.00,,,0.00,WUHU21623XXSP,2013-03-18 04:01:00,
2013-03-17 23:06:00,27.1,19.3,29.26,ESE,112,0.0,3.4,72,0.00,,,0.00,WUHU21623XXSP,2013-03-18 04:06:00,
2013-03-17 23:11:00,27.1,19.3,29.25,SSE,157,0.0,3.4,72,0.00,,,0.00,WUHU21623XXSP,2013-03-18 04:11:00,
2013-03-17 23:16:00,27.1,19.6,29.25,SE,135,0.0,0.0,73,0.00,,,0.00,WUHU21623XXSP,2013-03-18 04:16:00,
2013-03-17 23:21:00,27.3,19.8,29.26,South,180,8.5,8.5,73,0.00,,,0.00,WUHU21623XXSP,2013-03-18 04:21:00,
2013-03-17 23:26:00,27.5,20.0,29.25,South,180,11.9,11.9,73,0.00,,,0.00,WUHU21623XXSP,2013-03-18 04:26:00,
2013-03-17 23:31:00,27.7,20.1,29.25,South,180,8.5,11.9,73,0.00,,,0.00,WUHU21623XXSP,2013-03-18 04:31:00,
2013-03-17 23:36:00,28.0,20.5,29.25,SSE,157,2.9,10.7,73,0.00,,,0.00,WUHU21623XXSP,2013-03-18 04:36:00,
2013-03-17 23:41:00,28.0,20.5,29.25,South,180,7.4,10.7,73,0.00,,,0.00,WUHU21623XXSP,2013-03-18 04:41:00,
2013-03-17 23:46:00,28.2,20.7,29.25,South,180,11.4,11.4,73,0.00,,,0.00,WUHU21623XXSP,2013-03-18 04:46:00,
2013-03-17 23:52:00,28.2,20.7,29.25,South,180,7.4,11.4,73,0.00,,,0.00,WUHU21623XXSP,2013-03-18 04:52:00,
2013-03-17 23:57:00,28.2,21.0,29.24,South,180,3.8,11.4,74,0.00,,,0.00,WUHU21623XXSP,2013-03-18 04:57:00,